createdAt,value
2023-07-03T00:02:16.146Z,16.05
2023-07-03T00:05:11.587Z,16.03
2023-07-03T00:08:05.416Z,16.02
2023-07-03T00:10:52.484Z,16.01
2023-07-03T00:13:25.578Z,16.00
2023-07-03T00:16:13.479Z,15.99
2023-07-03T00:19:47.035Z,16.04
2023-07-03T00:22:34.080Z,15.98
2023-07-03T00:25:07.207Z,15.96
2023-07-03T00:27:55.118Z,15.96
2023-07-03T00:30:28.183Z,15.98
2023-07-03T00:33:22.311Z,15.98
2023-07-03T00:36:17.985Z,15.98
2023-07-03T00:39:05.998Z,15.97
2023-07-03T00:41:40.214Z,16.00
2023-07-03T00:44:28.005Z,16.04
2023-07-03T00:47:01.143Z,16.05
2023-07-03T00:49:49.014Z,16.07
2023-07-03T00:52:23.468Z,16.07
2023-07-03T00:55:09.982Z,16.05
2023-07-03T00:57:44.159Z,16.04
2023-07-03T01:00:34.982Z,16.03
2023-07-03T01:03:43.074Z,16.03
2023-07-03T01:06:35.954Z,16.01
2023-07-03T01:09:10.080Z,16.00
2023-07-03T01:11:58.928Z,15.99
2023-07-03T01:14:35.042Z,15.99
2023-07-03T01:17:30.016Z,15.94
2023-07-03T01:20:29.932Z,15.90
2023-07-03T01:23:42.934Z,15.86
2023-07-03T01:26:19.047Z,15.84
2023-07-03T01:29:08.931Z,15.83
2023-07-03T01:31:45.064Z,15.84
2023-07-03T01:34:35.868Z,15.85
2023-07-03T01:37:11.004Z,15.85
2023-07-03T01:39:59.217Z,15.85
2023-07-03T01:42:39.865Z,15.86
2023-07-03T01:45:26.932Z,15.87
2023-07-03T01:48:01.022Z,15.89
2023-07-03T01:50:48.849Z,15.90
2023-07-03T01:53:33.939Z,15.90
2023-07-03T01:56:32.816Z,15.89
2023-07-03T01:59:31.497Z,15.87
2023-07-03T02:02:24.965Z,15.87
2023-07-03T02:05:07.265Z,15.86
2023-07-03T02:07:54.847Z,15.87
2023-07-03T02:10:28.992Z,15.87
2023-07-03T02:13:15.819Z,15.88
2023-07-03T02:15:50.192Z,15.87
2023-07-03T02:18:37.817Z,15.87
2023-07-03T02:21:17.872Z,15.85
2023-07-03T02:23:57.724Z,15.86
2023-07-03T02:26:38.935Z,15.88
2023-07-03T02:29:20.780Z,15.89
2023-07-03T02:32:00.905Z,15.90
2023-07-03T02:34:40.760Z,15.90
2023-07-03T02:37:21.595Z,15.90
2023-07-03T02:40:01.786Z,15.89
2023-07-03T02:42:42.924Z,15.90
2023-07-03T02:45:23.747Z,15.90
2023-07-03T02:48:03.950Z,15.88
2023-07-03T02:50:43.909Z,15.85
2023-07-03T02:53:23.826Z,15.85
2023-07-03T02:56:04.737Z,15.84
2023-07-03T02:58:46.047Z,15.82
2023-07-03T03:01:29.708Z,15.84
2023-07-03T03:04:09.839Z,15.84
2023-07-03T03:06:50.686Z,15.84
2023-07-03T03:09:30.776Z,15.83
2023-07-03T03:12:10.667Z,15.84
2023-07-03T03:14:51.235Z,15.87
2023-07-03T03:17:31.721Z,15.89
2023-07-03T03:20:15.176Z,15.91
2023-07-03T03:22:55.644Z,15.91
2023-07-03T03:25:35.838Z,15.93
2023-07-03T03:28:15.628Z,15.98
2023-07-03T03:30:55.759Z,16.04
2023-07-03T03:33:35.601Z,16.10
2023-07-03T03:36:15.740Z,16.13
2023-07-03T03:38:56.642Z,16.16
2023-07-03T03:41:36.690Z,16.15
2023-07-03T03:44:16.842Z,16.15
2023-07-03T03:46:59.667Z,16.14
2023-07-03T03:49:40.687Z,16.14
2023-07-03T03:52:20.730Z,16.15
2023-07-03T03:55:00.533Z,16.20
2023-07-03T03:57:40.713Z,16.26
2023-07-03T04:00:28.601Z,16.33
2023-07-03T04:03:08.679Z,16.39
2023-07-03T04:05:49.931Z,16.45
2023-07-03T04:08:30.623Z,16.47
2023-07-03T04:11:10.538Z,16.52
2023-07-03T04:13:50.642Z,16.60
2023-07-03T04:16:33.540Z,16.65
2023-07-03T04:19:27.472Z,16.59
2023-07-03T04:22:14.488Z,16.57
2023-07-03T04:24:47.575Z,16.57
2023-07-03T04:27:34.479Z,16.56
2023-07-03T04:30:17.089Z,16.56
2023-07-03T04:33:01.513Z,16.57
2023-07-03T04:35:44.603Z,16.49
2023-07-03T04:38:31.503Z,16.37
2023-07-03T04:41:11.575Z,16.29
2023-07-03T04:43:54.498Z,16.31
2023-07-03T04:46:36.222Z,16.37
2023-07-03T04:49:16.773Z,16.41
2023-07-03T04:51:56.655Z,16.45
2023-07-03T04:54:36.434Z,16.48
2023-07-03T04:57:16.518Z,16.48
2023-07-03T04:59:57.437Z,16.49
2023-07-03T05:02:37.504Z,16.53
2023-07-03T05:05:18.549Z,16.57
2023-07-03T05:07:59.171Z,16.65
2023-07-03T05:10:39.373Z,16.71
2023-07-03T05:13:19.571Z,16.74
2023-07-03T05:16:00.377Z,16.77
2023-07-03T05:18:54.314Z,16.85
2023-07-03T05:21:42.391Z,16.95
2023-07-03T05:24:16.523Z,16.98
2023-07-03T05:27:03.405Z,16.95
2023-07-03T05:29:39.425Z,16.89
2023-07-03T05:32:26.337Z,16.83
2023-07-03T05:35:07.540Z,16.76
2023-07-03T05:37:47.345Z,16.69
2023-07-03T05:40:31.159Z,16.57
2023-07-03T05:43:11.298Z,16.46
2023-07-03T05:45:52.282Z,16.38
2023-07-03T05:48:32.345Z,16.31
2023-07-03T05:51:14.037Z,16.26
2023-07-03T05:53:54.602Z,16.26
2023-07-03T05:56:35.419Z,16.27
2023-07-03T05:59:17.258Z,16.27
2023-07-03T06:01:57.832Z,16.30
2023-07-03T06:04:38.349Z,16.35
2023-07-03T06:07:19.382Z,16.40
2023-07-03T06:09:59.308Z,16.44
2023-07-03T06:12:39.411Z,16.48
2023-07-03T06:15:19.259Z,16.50
2023-07-03T06:18:13.220Z,16.55
2023-07-03T06:21:00.213Z,16.66
2023-07-03T06:23:33.313Z,16.79
2023-07-03T06:26:20.272Z,16.86
2023-07-03T06:28:54.050Z,16.84
2023-07-03T06:31:42.241Z,16.88
2023-07-03T06:34:16.282Z,16.97
2023-07-03T06:37:03.232Z,17.04
2023-07-03T06:39:46.250Z,17.11
2023-07-03T06:42:26.193Z,17.17
2023-07-03T06:45:07.269Z,17.26
2023-07-03T06:47:47.237Z,17.41
2023-07-03T06:50:27.882Z,17.49
2023-07-03T06:53:08.180Z,17.48
2023-07-03T06:55:48.411Z,17.40
2023-07-03T06:58:29.466Z,17.33
2023-07-03T07:01:20.344Z,17.27
2023-07-03T07:04:00.184Z,17.22
2023-07-03T07:06:40.196Z,17.22
2023-07-03T07:09:20.098Z,17.22
2023-07-03T07:12:00.246Z,17.17
2023-07-03T07:14:40.131Z,17.10
2023-07-03T07:17:20.207Z,17.00
2023-07-03T07:20:00.158Z,16.94
2023-07-03T07:22:40.283Z,16.80
2023-07-03T07:25:20.098Z,16.49
2023-07-03T07:28:00.142Z,16.27
2023-07-03T07:30:40.128Z,16.14
2023-07-03T07:33:22.173Z,16.14
2023-07-03T07:36:02.080Z,16.09
2023-07-03T07:38:42.177Z,16.01
2023-07-03T07:41:22.056Z,15.96
2023-07-03T07:44:03.128Z,15.94
2023-07-03T07:46:44.058Z,15.97
2023-07-03T07:49:24.167Z,16.06
2023-07-03T07:52:05.034Z,16.14
2023-07-03T07:54:45.080Z,16.18
2023-07-03T07:57:25.045Z,16.18
2023-07-03T08:00:05.335Z,16.24
2023-07-03T08:02:52.284Z,16.33
2023-07-03T08:05:32.612Z,16.42
2023-07-03T08:08:12.998Z,16.43
2023-07-03T08:11:02.068Z,16.42
2023-07-03T08:13:42.953Z,16.48
2023-07-03T08:16:23.197Z,16.63
2023-07-03T08:19:02.930Z,16.80
2023-07-03T08:21:43.025Z,16.91
2023-07-03T08:24:22.974Z,16.96
2023-07-03T08:27:03.031Z,17.09
2023-07-03T08:29:44.956Z,17.25
2023-07-03T08:32:25.106Z,17.40
2023-07-03T08:37:50.025Z,17.54
2023-07-03T08:40:30.945Z,17.64
2023-07-03T08:43:15.308Z,17.77
2023-07-03T08:45:56.918Z,17.93
2023-07-03T08:48:42.004Z,18.03
2023-07-03T08:51:26.928Z,18.05
2023-07-03T08:54:26.049Z,18.04
2023-07-03T08:57:08.899Z,17.99
2023-07-03T08:59:49.010Z,18.01
2023-07-03T09:02:51.992Z,18.05
2023-07-03T09:05:43.000Z,17.99
2023-07-03T09:08:33.872Z,17.91
2023-07-03T09:11:14.930Z,17.87
2023-07-03T09:13:58.825Z,17.84
2023-07-03T09:16:40.662Z,17.83
2023-07-03T09:19:38.829Z,17.80
2023-07-03T09:23:00.792Z,17.71
2023-07-03T09:25:51.507Z,17.64
2023-07-03T09:28:27.188Z,17.50
2023-07-03T09:31:14.856Z,17.44
2023-07-03T09:33:50.199Z,17.39
2023-07-03T09:36:45.801Z,17.32
2023-07-03T09:39:21.855Z,17.11
2023-07-03T09:42:15.721Z,16.50
2023-07-03T09:44:48.861Z,15.88
2023-07-03T09:47:36.887Z,15.41
2023-07-03T09:50:16.967Z,15.07
2023-07-03T09:53:08.467Z,14.92
2023-07-03T09:55:51.044Z,14.96
2023-07-03T09:58:34.748Z,15.09
2023-07-03T10:07:08.065Z,15.55
2023-07-03T10:12:47.857Z,15.67
2023-07-03T10:15:33.689Z,15.78
2023-07-03T10:18:49.615Z,15.96
2023-07-03T10:21:39.745Z,16.12
2023-07-03T10:24:14.503Z,16.21
2023-07-03T10:27:06.689Z,16.31
2023-07-03T10:29:47.560Z,16.44
2023-07-03T10:32:39.733Z,16.65
2023-07-03T10:35:36.769Z,16.76
2023-07-03T10:38:26.662Z,16.92
2023-07-03T10:41:09.784Z,17.22
2023-07-03T10:44:08.581Z,17.56
2023-07-03T10:46:49.200Z,17.80
2023-07-03T10:49:40.582Z,17.85
2023-07-03T10:52:38.730Z,17.73
2023-07-03T10:55:23.621Z,17.57
2023-07-03T10:58:09.727Z,17.42
2023-07-03T11:01:00.609Z,17.32
2023-07-03T11:04:15.809Z,17.29
2023-07-03T11:07:15.517Z,17.27
2023-07-03T11:10:33.690Z,17.09
2023-07-03T11:13:20.539Z,16.65
2023-07-03T11:16:23.793Z,16.40
2023-07-03T11:25:30.513Z,16.59
2023-07-03T11:28:34.602Z,16.72
2023-07-03T11:31:15.566Z,16.87
2023-07-03T11:36:51.291Z,17.51
2023-07-03T11:45:14.592Z,17.86
2023-07-03T11:47:54.504Z,17.93
2023-07-03T11:50:42.561Z,18.16
2023-07-03T11:53:40.447Z,18.49
2023-07-03T11:56:20.158Z,18.89
2023-07-03T11:59:10.492Z,19.27
2023-07-03T12:01:44.574Z,19.64
2023-07-03T12:04:53.427Z,19.77
2023-07-03T12:07:26.597Z,19.75
2023-07-03T12:10:25.438Z,19.88
2023-07-03T12:13:33.550Z,20.07
2023-07-03T12:16:20.781Z,20.27
2023-07-03T12:19:07.613Z,20.66
2023-07-03T12:21:58.385Z,20.44
2023-07-03T12:24:38.496Z,20.27
2023-07-03T12:27:18.406Z,20.48
2023-07-03T12:29:58.490Z,20.56
2023-07-03T12:32:41.373Z,20.73
2023-07-03T12:35:25.467Z,21.09
2023-07-03T12:38:12.383Z,21.34
2023-07-03T12:40:53.450Z,21.47
2023-07-03T12:43:33.370Z,21.50
2023-07-03T12:46:13.482Z,21.47
2023-07-03T12:48:53.361Z,21.53
2023-07-03T12:51:33.432Z,21.75
2023-07-03T12:54:18.304Z,21.91
2023-07-03T12:57:02.646Z,21.96
2023-07-03T12:59:43.349Z,22.07
2023-07-03T13:02:33.319Z,22.02
2023-07-03T13:05:19.749Z,21.68
2023-07-03T13:08:07.745Z,21.44
2023-07-03T13:10:48.250Z,21.75
2023-07-03T13:13:30.378Z,21.88
2023-07-03T13:16:20.333Z,21.51
2023-07-03T13:19:15.207Z,21.08
2023-07-03T13:22:02.310Z,20.82
2023-07-03T13:24:37.508Z,20.66
2023-07-03T13:27:33.195Z,20.56
2023-07-03T13:30:33.049Z,20.46
2023-07-03T13:33:32.240Z,20.56
2023-07-03T13:36:05.297Z,20.67
2023-07-03T13:38:52.198Z,20.62
2023-07-03T13:41:26.053Z,20.61
2023-07-03T13:44:16.198Z,20.82
2023-07-03T13:46:51.674Z,20.71
2023-07-03T13:49:38.212Z,20.38
2023-07-03T13:52:13.277Z,19.99
2023-07-03T13:55:00.226Z,19.78
2023-07-03T13:57:40.923Z,19.62
2023-07-03T14:00:22.808Z,19.47
2023-07-03T14:03:03.723Z,19.37
2023-07-03T14:05:44.168Z,19.22
2023-07-03T14:08:24.453Z,19.15
2023-07-03T14:11:04.141Z,19.29
2023-07-03T14:13:45.325Z,19.36
2023-07-03T14:16:26.101Z,19.35
2023-07-03T14:19:20.089Z,19.42
2023-07-03T14:22:07.412Z,19.34
2023-07-03T14:24:41.226Z,19.19
2023-07-03T14:27:28.114Z,19.04
2023-07-03T14:30:09.678Z,18.90
2023-07-03T14:32:55.989Z,18.81
2023-07-03T14:35:36.779Z,18.78
2023-07-03T14:38:17.060Z,18.73
2023-07-03T14:40:58.163Z,18.73
2023-07-03T14:43:38.090Z,18.72
2023-07-03T14:46:18.189Z,18.94
2023-07-03T14:48:58.116Z,19.80
2023-07-03T14:51:38.156Z,20.37
2023-07-03T14:54:18.111Z,20.77
2023-07-03T14:56:59.678Z,20.78
2023-07-03T14:59:40.032Z,21.25
2023-07-03T15:02:20.301Z,21.48
2023-07-03T15:04:59.989Z,21.38
2023-07-03T15:07:42.865Z,21.39
2023-07-03T15:10:23.046Z,21.41
2023-07-03T15:13:04.327Z,21.67
2023-07-03T15:15:43.939Z,21.88
2023-07-03T15:18:32.018Z,21.99
2023-07-03T15:21:25.987Z,22.09
2023-07-03T15:24:23.951Z,22.10
2023-07-03T15:27:13.134Z,22.02
2023-07-03T15:29:47.348Z,21.87
2023-07-03T15:32:33.999Z,21.80
2023-07-03T15:35:07.725Z,21.64
2023-07-03T15:37:55.067Z,21.48
2023-07-03T15:40:28.073Z,21.27
2023-07-03T15:43:14.965Z,21.00
2023-07-03T15:45:48.086Z,20.72
2023-07-03T15:48:37.859Z,20.48
2023-07-03T15:51:13.007Z,20.35
2023-07-03T15:54:00.922Z,20.16
2023-07-03T15:56:34.034Z,19.91
2023-07-03T15:59:20.885Z,19.79
2023-07-03T16:01:54.011Z,19.72
2023-07-03T16:04:42.064Z,19.59
2023-07-03T16:07:16.067Z,19.43
2023-07-03T16:10:02.902Z,19.31
2023-07-03T16:12:36.577Z,19.26
2023-07-03T16:15:23.885Z,19.22
2023-07-03T16:17:57.108Z,19.14
2023-07-03T16:20:50.840Z,19.10
2023-07-03T16:23:46.806Z,19.04
2023-07-03T16:26:34.814Z,18.95
2023-07-03T16:29:09.468Z,18.87
2023-07-03T16:31:57.151Z,18.75
2023-07-03T16:34:30.936Z,18.65
2023-07-03T16:37:17.748Z,18.60
2023-07-03T16:39:50.881Z,18.54
2023-07-03T16:42:37.818Z,18.52
2023-07-03T16:45:11.953Z,18.49
2023-07-03T16:47:58.863Z,18.43
2023-07-03T16:50:32.267Z,18.36
2023-07-03T16:53:18.758Z,18.29
2023-07-03T16:55:52.292Z,18.24
2023-07-03T16:58:40.771Z,18.24
2023-07-03T17:01:17.891Z,18.24
2023-07-03T17:04:05.781Z,18.24
2023-07-03T17:06:42.544Z,18.21
2023-07-03T17:09:29.696Z,18.16
2023-07-03T17:12:02.886Z,18.16
2023-07-03T17:14:49.695Z,18.10
2023-07-03T17:17:22.849Z,18.01
2023-07-03T17:20:16.738Z,17.94
2023-07-03T17:23:11.638Z,17.87
2023-07-03T17:26:00.643Z,17.83
2023-07-03T17:28:34.929Z,17.78
2023-07-03T17:31:21.787Z,17.73
2023-07-03T17:33:54.769Z,17.70
2023-07-03T17:36:41.915Z,17.68
2023-07-03T17:39:15.770Z,17.63
2023-07-03T17:42:02.657Z,17.62
2023-07-03T17:44:35.773Z,17.61
2023-07-03T17:47:22.651Z,17.57
2023-07-03T17:49:57.632Z,17.54
2023-07-03T17:52:44.644Z,17.53
2023-07-03T17:55:18.729Z,17.49
2023-07-03T17:58:07.900Z,17.44
2023-07-03T18:00:42.278Z,17.39
2023-07-03T18:03:30.861Z,17.37
2023-07-03T18:06:07.578Z,17.34
2023-07-03T18:08:54.637Z,17.31
2023-07-03T18:11:31.280Z,17.28
2023-07-03T18:14:18.602Z,17.26
2023-07-03T18:16:51.991Z,17.23
2023-07-03T18:19:45.607Z,17.22
2023-07-03T18:22:40.497Z,17.18
2023-07-03T18:25:27.552Z,17.15
2023-07-03T18:28:01.735Z,17.12
2023-07-03T18:30:48.602Z,17.07
2023-07-03T18:33:22.383Z,17.03
2023-07-03T18:36:10.553Z,16.99
2023-07-03T18:38:46.690Z,16.97
2023-07-03T18:41:35.824Z,16.94
2023-07-03T18:44:10.263Z,16.90
2023-07-03T18:46:57.520Z,16.87
2023-07-03T18:49:31.629Z,16.85
2023-07-03T18:52:18.518Z,16.81
2023-07-03T18:54:53.375Z,16.76
2023-07-03T18:57:42.081Z,16.74
2023-07-03T19:00:16.947Z,16.72
2023-07-03T19:03:04.537Z,16.70
2023-07-03T19:05:39.305Z,16.67
2023-07-03T19:08:26.519Z,16.65
2023-07-03T19:11:01.641Z,16.64
2023-07-03T19:13:48.526Z,16.63
2023-07-03T19:16:23.115Z,16.62
2023-07-03T19:19:17.425Z,16.60
2023-07-03T19:22:11.402Z,16.56
2023-07-03T19:24:59.341Z,16.54
2023-07-03T19:27:32.744Z,16.54
2023-07-03T19:30:20.462Z,16.53
2023-07-03T19:32:55.146Z,16.51
2023-07-03T19:35:44.442Z,16.49
2023-07-03T19:38:18.982Z,16.48
2023-07-03T19:41:05.400Z,16.49
2023-07-03T19:43:39.588Z,16.49
2023-07-03T19:46:29.758Z,16.50
2023-07-03T19:49:03.957Z,16.49
2023-07-03T19:51:51.347Z,16.47
2023-07-03T19:54:24.956Z,16.47
2023-07-03T19:57:16.720Z,16.46
2023-07-03T19:59:50.394Z,16.45
2023-07-03T20:02:39.357Z,16.43
2023-07-03T20:05:13.417Z,16.42
2023-07-03T20:08:00.339Z,16.42
2023-07-03T20:10:36.508Z,16.43
2023-07-03T20:13:23.345Z,16.43
2023-07-03T20:15:56.607Z,16.43
2023-07-03T20:18:43.258Z,16.44
2023-07-03T20:21:17.378Z,16.45
2023-07-03T20:24:05.318Z,16.46
2023-07-03T20:26:38.390Z,16.46
2023-07-03T20:29:25.281Z,16.46
2023-07-03T20:32:00.541Z,16.49
2023-07-03T20:34:47.282Z,16.50
2023-07-03T20:37:20.334Z,16.50
2023-07-03T20:40:07.184Z,16.48
2023-07-03T20:42:40.337Z,16.49
2023-07-03T20:45:28.315Z,16.48
2023-07-03T20:48:03.472Z,16.48
2023-07-03T20:50:58.483Z,16.46
2023-07-03T20:53:52.049Z,16.45
2023-07-03T20:56:44.216Z,16.44
2023-07-03T20:59:17.313Z,16.44
2023-07-03T21:02:04.218Z,16.44
2023-07-03T21:04:37.331Z,16.44
2023-07-03T21:07:24.140Z,16.44
2023-07-03T21:10:05.152Z,16.47
2023-07-03T21:12:52.205Z,16.49
2023-07-03T21:15:25.380Z,16.50
2023-07-03T21:18:12.191Z,16.52
2023-07-03T21:20:46.324Z,16.54
2023-07-03T21:23:34.182Z,16.54
2023-07-03T21:26:07.321Z,16.55
2023-07-03T21:28:55.173Z,16.56
2023-07-03T21:31:32.942Z,16.56
2023-07-03T21:34:20.108Z,16.58
2023-07-03T21:36:53.227Z,16.60
2023-07-03T21:39:40.151Z,16.60
2023-07-03T21:42:14.173Z,16.59
2023-07-03T21:45:01.087Z,16.60
2023-07-03T21:47:34.311Z,16.62
2023-07-03T21:50:21.116Z,16.64
2023-07-03T21:52:54.205Z,16.64
2023-07-03T21:55:41.016Z,16.63
2023-07-03T21:58:14.160Z,16.65
2023-07-03T22:01:01.025Z,16.66
2023-07-03T22:03:35.104Z,16.66
2023-07-03T22:06:21.996Z,16.68
2023-07-03T22:08:56.110Z,16.68
2023-07-03T22:11:42.967Z,16.66
2023-07-03T22:14:16.141Z,16.66
2023-07-03T22:17:03.052Z,16.66
2023-07-03T22:19:37.563Z,16.65
2023-07-03T22:22:27.208Z,16.61
2023-07-03T22:25:01.044Z,16.57
2023-07-03T22:27:47.945Z,16.54
2023-07-03T22:30:23.136Z,16.55
2023-07-03T22:33:09.945Z,16.55
2023-07-03T22:35:43.037Z,16.55
2023-07-03T22:38:29.982Z,16.55
2023-07-03T22:41:03.863Z,16.56
2023-07-03T22:43:52.976Z,16.58
2023-07-03T22:46:26.089Z,16.58
2023-07-03T22:49:24.380Z,16.59
2023-07-03T22:51:59.010Z,16.60
2023-07-03T22:54:47.983Z,16.62
2023-07-03T22:57:20.977Z,16.63
2023-07-03T23:00:07.904Z,16.63
2023-07-03T23:02:41.058Z,16.64
2023-07-03T23:05:27.918Z,16.64
2023-07-03T23:08:00.987Z,16.64
2023-07-03T23:10:57.875Z,16.63
2023-07-03T23:13:32.966Z,16.62
2023-07-03T23:16:20.084Z,16.58
2023-07-03T23:18:54.066Z,16.61
2023-07-03T23:21:47.823Z,16.62
2023-07-03T23:24:41.846Z,16.60
2023-07-03T23:27:31.845Z,16.58
2023-07-03T23:30:06.046Z,16.57
2023-07-03T23:32:52.874Z,16.58
2023-07-03T23:35:25.942Z,16.58
2023-07-03T23:38:12.802Z,16.57
2023-07-03T23:40:48.303Z,16.56
2023-07-03T23:43:34.852Z,16.56
2023-07-03T23:46:12.957Z,16.56
2023-07-03T23:48:59.748Z,16.55
2023-07-03T23:51:34.932Z,16.55
2023-07-03T23:54:21.840Z,16.53
2023-07-03T23:56:54.852Z,16.54
2023-07-03T23:59:42.006Z,16.54
